sensor_id;sensor_type;location;lat;lon;timestamp;P1;durP1;ratioP1;P2;durP2;ratioP2
48215;SDS011;34005;48.844;10.098;2023-05-15T00:00:26;11.55;;;3.20;;
48215;SDS011;34005;48.844;10.098;2023-05-15T00:02:53;3.25;;;2.95;;
48215;SDS011;34005;48.844;10.098;2023-05-15T00:05:23;4.55;;;3.53;;
48215;SDS011;34005;48.844;10.098;2023-05-15T00:07:51;2.78;;;2.42;;
48215;SDS011;34005;48.844;10.098;2023-05-15T00:10:19;3.90;;;2.85;;
48215;SDS011;34005;48.844;10.098;2023-05-15T00:12:47;2.88;;;2.67;;
48215;SDS011;34005;48.844;10.098;2023-05-15T00:15:15;3.33;;;3.03;;
48215;SDS011;34005;48.844;10.098;2023-05-15T00:17:43;6.28;;;4.50;;
48215;SDS011;34005;48.844;10.098;2023-05-15T00:20:10;4.20;;;3.80;;
48215;SDS011;34005;48.844;10.098;2023-05-15T00:22:40;4.07;;;3.45;;
48215;SDS011;34005;48.844;10.098;2023-05-15T00:25:07;4.07;;;3.55;;
48215;SDS011;34005;48.844;10.098;2023-05-15T00:27:35;4.97;;;3.58;;
48215;SDS011;34005;48.844;10.098;2023-05-15T00:30:04;4.03;;;3.63;;
48215;SDS011;34005;48.844;10.098;2023-05-15T00:32:32;5.45;;;3.80;;
48215;SDS011;34005;48.844;10.098;2023-05-15T00:34:59;5.20;;;3.70;;
48215;SDS011;34005;48.844;10.098;2023-05-15T00:37:27;5.38;;;4.30;;
48215;SDS011;34005;48.844;10.098;2023-05-15T00:39:56;5.07;;;4.25;;
48215;SDS011;34005;48.844;10.098;2023-05-15T00:42:23;6.40;;;4.53;;
48215;SDS011;34005;48.844;10.098;2023-05-15T00:44:51;5.20;;;3.60;;
48215;SDS011;34005;48.844;10.098;2023-05-15T00:47:20;4.78;;;3.53;;
48215;SDS011;34005;48.844;10.098;2023-05-15T00:49:49;5.53;;;3.58;;
48215;SDS011;34005;48.844;10.098;2023-05-15T00:52:18;5.50;;;3.50;;
48215;SDS011;34005;48.844;10.098;2023-05-15T00:54:46;4.10;;;3.70;;
48215;SDS011;34005;48.844;10.098;2023-05-15T00:57:15;4.55;;;3.75;;
48215;SDS011;34005;48.844;10.098;2023-05-15T00:59:44;5.03;;;3.33;;
48215;SDS011;34005;48.844;10.098;2023-05-15T01:02:13;9.10;;;4.05;;
48215;SDS011;34005;48.844;10.098;2023-05-15T01:04:43;6.90;;;4.28;;
48215;SDS011;34005;48.844;10.098;2023-05-15T01:07:11;4.00;;;3.40;;
48215;SDS011;34005;48.844;10.098;2023-05-15T01:09:39;7.20;;;3.97;;
48215;SDS011;34005;48.844;10.098;2023-05-15T01:12:08;4.18;;;3.00;;
48215;SDS011;34005;48.844;10.098;2023-05-15T01:14:38;3.95;;;3.55;;
48215;SDS011;34005;48.844;10.098;2023-05-15T01:17:06;4.20;;;3.75;;
48215;SDS011;34005;48.844;10.098;2023-05-15T01:19:34;4.68;;;3.90;;
48215;SDS011;34005;48.844;10.098;2023-05-15T01:25:06;5.13;;;4.03;;
48215;SDS011;34005;48.844;10.098;2023-05-15T01:28:12;4.68;;;3.88;;
48215;SDS011;34005;48.844;10.098;2023-05-15T01:30:44;5.50;;;4.53;;
48215;SDS011;34005;48.844;10.098;2023-05-15T01:33:17;4.53;;;4.05;;
48215;SDS011;34005;48.844;10.098;2023-05-15T01:35:49;4.72;;;3.45;;
48215;SDS011;34005;48.844;10.098;2023-05-15T01:38:23;4.88;;;4.15;;
48215;SDS011;34005;48.844;10.098;2023-05-15T01:40:58;4.57;;;3.97;;
48215;SDS011;34005;48.844;10.098;2023-05-15T01:43:31;6.90;;;4.22;;
48215;SDS011;34005;48.844;10.098;2023-05-15T01:46:01;5.45;;;4.25;;
48215;SDS011;34005;48.844;10.098;2023-05-15T01:48:30;4.45;;;3.70;;
48215;SDS011;34005;48.844;10.098;2023-05-15T01:51:02;4.93;;;3.88;;
48215;SDS011;34005;48.844;10.098;2023-05-15T01:53:32;4.20;;;3.80;;
48215;SDS011;34005;48.844;10.098;2023-05-15T01:56:02;5.00;;;4.07;;
48215;SDS011;34005;48.844;10.098;2023-05-15T01:58:34;5.57;;;4.93;;
48215;SDS011;34005;48.844;10.098;2023-05-15T02:01:03;6.07;;;4.68;;
48215;SDS011;34005;48.844;10.098;2023-05-15T02:03:32;5.60;;;4.60;;
48215;SDS011;34005;48.844;10.098;2023-05-15T02:06:00;5.47;;;4.85;;
48215;SDS011;34005;48.844;10.098;2023-05-15T02:08:28;7.70;;;4.63;;
48215;SDS011;34005;48.844;10.098;2023-05-15T02:10:58;4.78;;;4.28;;
48215;SDS011;34005;48.844;10.098;2023-05-15T02:13:26;4.88;;;4.10;;
48215;SDS011;34005;48.844;10.098;2023-05-15T02:15:56;4.78;;;3.72;;
48215;SDS011;34005;48.844;10.098;2023-05-15T02:18:24;6.63;;;3.97;;
48215;SDS011;34005;48.844;10.098;2023-05-15T02:20:53;6.40;;;5.05;;
48215;SDS011;34005;48.844;10.098;2023-05-15T02:23:21;5.72;;;5.03;;
48215;SDS011;34005;48.844;10.098;2023-05-15T02:26:02;6.35;;;5.65;;
48215;SDS011;34005;48.844;10.098;2023-05-15T02:28:40;3.83;;;3.42;;
48215;SDS011;34005;48.844;10.098;2023-05-15T02:31:16;4.55;;;4.15;;
48215;SDS011;34005;48.844;10.098;2023-05-15T02:33:54;4.93;;;4.32;;
48215;SDS011;34005;48.844;10.098;2023-05-15T02:36:31;5.55;;;4.00;;
48215;SDS011;34005;48.844;10.098;2023-05-15T02:39:01;6.90;;;4.05;;
48215;SDS011;34005;48.844;10.098;2023-05-15T02:41:29;8.45;;;5.28;;
48215;SDS011;34005;48.844;10.098;2023-05-15T02:43:59;6.18;;;4.43;;
48215;SDS011;34005;48.844;10.098;2023-05-15T02:46:29;5.10;;;4.07;;
48215;SDS011;34005;48.844;10.098;2023-05-15T02:48:58;4.20;;;3.80;;
48215;SDS011;34005;48.844;10.098;2023-05-15T02:51:26;5.35;;;4.85;;
48215;SDS011;34005;48.844;10.098;2023-05-15T02:53:55;5.75;;;4.78;;
48215;SDS011;34005;48.844;10.098;2023-05-15T02:56:24;5.43;;;4.82;;
48215;SDS011;34005;48.844;10.098;2023-05-15T02:58:51;5.25;;;4.05;;
48215;SDS011;34005;48.844;10.098;2023-05-15T03:01:19;4.57;;;4.00;;
48215;SDS011;34005;48.844;10.098;2023-05-15T03:03:48;4.57;;;4.18;;
48215;SDS011;34005;48.844;10.098;2023-05-15T03:06:16;4.65;;;4.18;;
48215;SDS011;34005;48.844;10.098;2023-05-15T03:08:43;5.82;;;5.15;;
48215;SDS011;34005;48.844;10.098;2023-05-15T03:11:11;5.00;;;4.50;;
48215;SDS011;34005;48.844;10.098;2023-05-15T03:13:39;5.13;;;4.30;;
48215;SDS011;34005;48.844;10.098;2023-05-15T03:16:07;5.75;;;5.13;;
48215;SDS011;34005;48.844;10.098;2023-05-15T03:18:34;5.60;;;5.05;;
48215;SDS011;34005;48.844;10.098;2023-05-15T03:21:03;5.53;;;4.78;;
48215;SDS011;34005;48.844;10.098;2023-05-15T03:23:31;5.22;;;4.47;;
48215;SDS011;34005;48.844;10.098;2023-05-15T03:26:02;5.30;;;4.80;;
48215;SDS011;34005;48.844;10.098;2023-05-15T03:28:29;6.18;;;5.05;;
48215;SDS011;34005;48.844;10.098;2023-05-15T03:30:57;7.00;;;5.22;;
48215;SDS011;34005;48.844;10.098;2023-05-15T03:33:24;5.90;;;5.35;;
48215;SDS011;34005;48.844;10.098;2023-05-15T03:35:52;7.38;;;5.70;;
48215;SDS011;34005;48.844;10.098;2023-05-15T03:38:21;7.35;;;6.03;;
48215;SDS011;34005;48.844;10.098;2023-05-15T03:40:48;6.82;;;5.97;;
48215;SDS011;34005;48.844;10.098;2023-05-15T03:43:16;7.88;;;5.68;;
48215;SDS011;34005;48.844;10.098;2023-05-15T03:45:44;6.47;;;5.88;;
48215;SDS011;34005;48.844;10.098;2023-05-15T03:48:11;7.10;;;6.40;;
48215;SDS011;34005;48.844;10.098;2023-05-15T03:50:39;7.55;;;6.22;;
48215;SDS011;34005;48.844;10.098;2023-05-15T03:53:06;6.50;;;5.80;;
48215;SDS011;34005;48.844;10.098;2023-05-15T03:55:35;7.28;;;6.13;;
48215;SDS011;34005;48.844;10.098;2023-05-15T03:58:03;13.70;;;7.68;;
48215;SDS011;34005;48.844;10.098;2023-05-15T04:00:30;6.35;;;5.53;;
48215;SDS011;34005;48.844;10.098;2023-05-15T04:02:58;8.70;;;5.63;;
48215;SDS011;34005;48.844;10.098;2023-05-15T04:05:26;10.00;;;8.18;;
48215;SDS011;34005;48.844;10.098;2023-05-15T04:07:54;7.47;;;6.50;;
48215;SDS011;34005;48.844;10.098;2023-05-15T04:10:21;8.18;;;7.30;;
48215;SDS011;34005;48.844;10.098;2023-05-15T04:12:50;9.05;;;7.53;;
48215;SDS011;34005;48.844;10.098;2023-05-15T04:15:19;8.98;;;7.70;;
48215;SDS011;34005;48.844;10.098;2023-05-15T04:17:49;10.30;;;7.82;;
48215;SDS011;34005;48.844;10.098;2023-05-15T04:20:18;8.63;;;7.60;;
48215;SDS011;34005;48.844;10.098;2023-05-15T04:22:47;8.50;;;7.60;;
48215;SDS011;34005;48.844;10.098;2023-05-15T04:25:15;8.07;;;7.28;;
48215;SDS011;34005;48.844;10.098;2023-05-15T04:27:43;9.90;;;8.65;;
48215;SDS011;34005;48.844;10.098;2023-05-15T04:30:13;9.27;;;7.88;;
48215;SDS011;34005;48.844;10.098;2023-05-15T04:32:41;10.15;;;8.05;;
48215;SDS011;34005;48.844;10.098;2023-05-15T04:35:09;9.80;;;8.48;;
48215;SDS011;34005;48.844;10.098;2023-05-15T04:37:39;9.63;;;7.35;;
48215;SDS011;34005;48.844;10.098;2023-05-15T04:40:08;10.23;;;8.25;;
48215;SDS011;34005;48.844;10.098;2023-05-15T04:42:36;9.77;;;8.23;;
48215;SDS011;34005;48.844;10.098;2023-05-15T04:45:05;10.82;;;8.82;;
48215;SDS011;34005;48.844;10.098;2023-05-15T04:47:35;9.73;;;8.10;;
48215;SDS011;34005;48.844;10.098;2023-05-15T04:50:03;9.07;;;7.68;;
48215;SDS011;34005;48.844;10.098;2023-05-15T04:52:31;11.88;;;10.30;;
48215;SDS011;34005;48.844;10.098;2023-05-15T04:55:00;9.68;;;8.68;;
48215;SDS011;34005;48.844;10.098;2023-05-15T04:57:28;10.20;;;8.93;;
48215;SDS011;34005;48.844;10.098;2023-05-15T04:59:56;10.15;;;8.38;;
48215;SDS011;34005;48.844;10.098;2023-05-15T05:02:24;11.60;;;8.00;;
48215;SDS011;34005;48.844;10.098;2023-05-15T05:04:53;9.57;;;8.25;;
48215;SDS011;34005;48.844;10.098;2023-05-15T05:07:20;9.32;;;8.32;;
48215;SDS011;34005;48.844;10.098;2023-05-15T05:09:48;9.60;;;8.60;;
48215;SDS011;34005;48.844;10.098;2023-05-15T05:12:16;8.77;;;7.85;;
48215;SDS011;34005;48.844;10.098;2023-05-15T05:14:44;9.48;;;8.00;;
48215;SDS011;34005;48.844;10.098;2023-05-15T05:17:12;11.13;;;8.18;;
48215;SDS011;34005;48.844;10.098;2023-05-15T05:19:39;9.57;;;8.40;;
48215;SDS011;34005;48.844;10.098;2023-05-15T05:22:09;12.75;;;9.32;;
48215;SDS011;34005;48.844;10.098;2023-05-15T05:24:39;11.20;;;7.95;;
48215;SDS011;34005;48.844;10.098;2023-05-15T05:27:29;12.10;;;8.80;;
48215;SDS011;34005;48.844;10.098;2023-05-15T05:29:59;11.52;;;9.45;;
48215;SDS011;34005;48.844;10.098;2023-05-15T05:32:30;11.20;;;8.95;;
48215;SDS011;34005;48.844;10.098;2023-05-15T05:35:09;12.68;;;9.95;;
48215;SDS011;34005;48.844;10.098;2023-05-15T05:37:50;10.88;;;9.45;;
48215;SDS011;34005;48.844;10.098;2023-05-15T05:40:22;9.85;;;8.15;;
48215;SDS011;34005;48.844;10.098;2023-05-15T05:43:00;11.25;;;8.65;;
48215;SDS011;34005;48.844;10.098;2023-05-15T05:45:32;9.95;;;8.80;;
48215;SDS011;34005;48.844;10.098;2023-05-15T05:48:04;10.85;;;8.68;;
48215;SDS011;34005;48.844;10.098;2023-05-15T05:50:34;11.48;;;7.25;;
48215;SDS011;34005;48.844;10.098;2023-05-15T05:53:18;7.93;;;6.85;;
48215;SDS011;34005;48.844;10.098;2023-05-15T05:55:54;8.70;;;7.13;;
48215;SDS011;34005;48.844;10.098;2023-05-15T05:58:32;8.77;;;7.55;;
48215;SDS011;34005;48.844;10.098;2023-05-15T06:01:04;9.48;;;7.57;;
48215;SDS011;34005;48.844;10.098;2023-05-15T06:03:35;7.47;;;6.65;;
48215;SDS011;34005;48.844;10.098;2023-05-15T06:06:06;10.65;;;8.30;;
48215;SDS011;34005;48.844;10.098;2023-05-15T06:08:41;9.77;;;7.30;;
48215;SDS011;34005;48.844;10.098;2023-05-15T06:13:41;8.80;;;7.22;;
48215;SDS011;34005;48.844;10.098;2023-05-15T06:16:11;7.38;;;6.63;;
48215;SDS011;34005;48.844;10.098;2023-05-15T06:18:43;6.70;;;5.97;;
48215;SDS011;34005;48.844;10.098;2023-05-15T06:21:16;7.28;;;6.18;;
48215;SDS011;34005;48.844;10.098;2023-05-15T06:23:49;7.53;;;6.57;;
48215;SDS011;34005;48.844;10.098;2023-05-15T06:26:19;7.75;;;6.88;;
48215;SDS011;34005;48.844;10.098;2023-05-15T06:28:48;10.38;;;6.35;;
48215;SDS011;34005;48.844;10.098;2023-05-15T06:31:20;7.60;;;6.00;;
48215;SDS011;34005;48.844;10.098;2023-05-15T06:33:50;6.93;;;6.18;;
48215;SDS011;34005;48.844;10.098;2023-05-15T06:36:19;6.75;;;6.05;;
48215;SDS011;34005;48.844;10.098;2023-05-15T06:38:52;7.50;;;5.40;;
48215;SDS011;34005;48.844;10.098;2023-05-15T06:41:22;6.13;;;5.53;;
48215;SDS011;34005;48.844;10.098;2023-05-15T06:43:52;6.20;;;5.32;;
48215;SDS011;34005;48.844;10.098;2023-05-15T06:46:25;8.00;;;5.80;;
48215;SDS011;34005;48.844;10.098;2023-05-15T06:48:57;6.32;;;5.32;;
48215;SDS011;34005;48.844;10.098;2023-05-15T06:51:27;6.32;;;5.72;;
48215;SDS011;34005;48.844;10.098;2023-05-15T06:53:59;9.02;;;5.80;;
48215;SDS011;34005;48.844;10.098;2023-05-15T06:56:30;7.57;;;5.57;;
48215;SDS011;34005;48.844;10.098;2023-05-15T06:59:02;5.32;;;4.82;;
48215;SDS011;34005;48.844;10.098;2023-05-15T07:01:31;6.00;;;5.43;;
48215;SDS011;34005;48.844;10.098;2023-05-15T07:04:01;10.85;;;5.60;;
48215;SDS011;34005;48.844;10.098;2023-05-15T07:06:33;6.70;;;4.90;;
48215;SDS011;34005;48.844;10.098;2023-05-15T07:09:05;5.93;;;5.32;;
48215;SDS011;34005;48.844;10.098;2023-05-15T07:11:35;5.55;;;5.05;;
48215;SDS011;34005;48.844;10.098;2023-05-15T07:14:04;6.53;;;5.07;;
48215;SDS011;34005;48.844;10.098;2023-05-15T07:16:34;7.32;;;5.88;;
48215;SDS011;34005;48.844;10.098;2023-05-15T07:19:03;6.43;;;5.82;;
48215;SDS011;34005;48.844;10.098;2023-05-15T07:21:33;7.35;;;5.85;;
48215;SDS011;34005;48.844;10.098;2023-05-15T07:24:02;6.68;;;5.60;;
48215;SDS011;34005;48.844;10.098;2023-05-15T07:26:35;5.88;;;5.28;;
48215;SDS011;34005;48.844;10.098;2023-05-15T07:29:23;6.13;;;4.78;;
48215;SDS011;34005;48.844;10.098;2023-05-15T07:31:53;6.88;;;5.20;;
48215;SDS011;34005;48.844;10.098;2023-05-15T07:34:23;5.22;;;4.72;;
48215;SDS011;34005;48.844;10.098;2023-05-15T07:36:53;5.30;;;4.80;;
48215;SDS011;34005;48.844;10.098;2023-05-15T07:39:24;8.05;;;5.28;;
48215;SDS011;34005;48.844;10.098;2023-05-15T07:41:54;5.68;;;4.32;;
48215;SDS011;34005;48.844;10.098;2023-05-15T07:44:23;6.70;;;4.78;;
48215;SDS011;34005;48.844;10.098;2023-05-15T07:46:53;5.53;;;4.60;;
48215;SDS011;34005;48.844;10.098;2023-05-15T07:49:23;4.85;;;4.22;;
48215;SDS011;34005;48.844;10.098;2023-05-15T07:51:54;4.90;;;4.40;;
48215;SDS011;34005;48.844;10.098;2023-05-15T07:54:27;6.45;;;4.65;;
48215;SDS011;34005;48.844;10.098;2023-05-15T07:56:58;5.72;;;5.15;;
48215;SDS011;34005;48.844;10.098;2023-05-15T07:59:28;6.05;;;4.93;;
48215;SDS011;34005;48.844;10.098;2023-05-15T08:01:58;6.63;;;5.15;;
48215;SDS011;34005;48.844;10.098;2023-05-15T08:04:27;5.47;;;4.43;;
48215;SDS011;34005;48.844;10.098;2023-05-15T08:06:59;5.60;;;4.95;;
48215;SDS011;34005;48.844;10.098;2023-05-15T08:09:33;5.20;;;4.65;;
48215;SDS011;34005;48.844;10.098;2023-05-15T08:12:15;5.15;;;4.65;;
48215;SDS011;34005;48.844;10.098;2023-05-15T08:14:49;4.88;;;4.47;;
48215;SDS011;34005;48.844;10.098;2023-05-15T08:17:19;4.72;;;4.32;;
48215;SDS011;34005;48.844;10.098;2023-05-15T08:19:49;4.35;;;3.92;;
48215;SDS011;34005;48.844;10.098;2023-05-15T08:22:19;5.72;;;4.57;;
48215;SDS011;34005;48.844;10.098;2023-05-15T08:24:49;5.47;;;4.85;;
48215;SDS011;34005;48.844;10.098;2023-05-15T08:27:18;6.70;;;4.35;;
48215;SDS011;34005;48.844;10.098;2023-05-15T08:29:51;4.93;;;4.05;;
48215;SDS011;34005;48.844;10.098;2023-05-15T08:32:23;4.80;;;4.30;;
48215;SDS011;34005;48.844;10.098;2023-05-15T08:34:52;6.45;;;4.00;;
48215;SDS011;34005;48.844;10.098;2023-05-15T08:37:27;6.03;;;4.28;;
48215;SDS011;34005;48.844;10.098;2023-05-15T08:39:58;5.15;;;4.55;;
48215;SDS011;34005;48.844;10.098;2023-05-15T08:42:31;4.15;;;3.75;;
48215;SDS011;34005;48.844;10.098;2023-05-15T08:45:05;4.50;;;4.07;;
48215;SDS011;34005;48.844;10.098;2023-05-15T08:47:38;4.88;;;4.10;;
48215;SDS011;34005;48.844;10.098;2023-05-15T08:50:08;5.07;;;4.30;;
48215;SDS011;34005;48.844;10.098;2023-05-15T08:52:40;4.80;;;4.40;;
48215;SDS011;34005;48.844;10.098;2023-05-15T08:55:12;4.53;;;4.13;;
48215;SDS011;34005;48.844;10.098;2023-05-15T08:57:43;4.75;;;4.32;;
48215;SDS011;34005;48.844;10.098;2023-05-15T09:00:16;5.03;;;4.53;;
48215;SDS011;34005;48.844;10.098;2023-05-15T09:02:47;7.78;;;4.28;;
48215;SDS011;34005;48.844;10.098;2023-05-15T09:05:19;4.32;;;3.92;;
48215;SDS011;34005;48.844;10.098;2023-05-15T09:10:25;6.05;;;4.68;;
48215;SDS011;34005;48.844;10.098;2023-05-15T09:12:56;5.57;;;3.72;;
48215;SDS011;34005;48.844;10.098;2023-05-15T09:15:29;4.88;;;4.38;;
48215;SDS011;34005;48.844;10.098;2023-05-15T09:18:01;4.55;;;3.85;;
48215;SDS011;34005;48.844;10.098;2023-05-15T09:20:35;5.85;;;3.92;;
48215;SDS011;34005;48.844;10.098;2023-05-15T09:23:20;3.97;;;3.63;;
48215;SDS011;34005;48.844;10.098;2023-05-15T09:25:54;5.57;;;4.40;;
48215;SDS011;34005;48.844;10.098;2023-05-15T09:28:29;4.15;;;3.85;;
48215;SDS011;34005;48.844;10.098;2023-05-15T09:31:02;5.65;;;4.22;;
48215;SDS011;34005;48.844;10.098;2023-05-15T09:33:33;5.97;;;4.05;;
48215;SDS011;34005;48.844;10.098;2023-05-15T09:36:04;4.90;;;4.47;;
48215;SDS011;34005;48.844;10.098;2023-05-15T09:38:38;5.10;;;4.20;;
48215;SDS011;34005;48.844;10.098;2023-05-15T09:41:16;4.78;;;4.38;;
48215;SDS011;34005;48.844;10.098;2023-05-15T09:43:57;5.38;;;4.38;;
48215;SDS011;34005;48.844;10.098;2023-05-15T09:46:27;7.82;;;4.78;;
48215;SDS011;34005;48.844;10.098;2023-05-15T09:48:58;3.80;;;3.50;;
48215;SDS011;34005;48.844;10.098;2023-05-15T09:51:33;7.15;;;4.25;;
48215;SDS011;34005;48.844;10.098;2023-05-15T09:54:03;4.40;;;4.00;;
48215;SDS011;34005;48.844;10.098;2023-05-15T09:56:35;4.75;;;4.35;;
48215;SDS011;34005;48.844;10.098;2023-05-15T09:59:05;4.85;;;4.45;;
48215;SDS011;34005;48.844;10.098;2023-05-15T10:01:42;4.95;;;4.53;;
48215;SDS011;34005;48.844;10.098;2023-05-15T10:04:15;6.95;;;4.35;;
48215;SDS011;34005;48.844;10.098;2023-05-15T10:06:46;4.72;;;4.35;;
48215;SDS011;34005;48.844;10.098;2023-05-15T10:09:20;5.32;;;4.18;;
48215;SDS011;34005;48.844;10.098;2023-05-15T10:11:54;5.05;;;4.65;;
48215;SDS011;34005;48.844;10.098;2023-05-15T10:14:25;4.63;;;4.22;;
48215;SDS011;34005;48.844;10.098;2023-05-15T10:16:57;3.80;;;3.50;;
48215;SDS011;34005;48.844;10.098;2023-05-15T10:19:34;5.05;;;4.20;;
48215;SDS011;34005;48.844;10.098;2023-05-15T10:22:23;4.32;;;3.90;;
48215;SDS011;34005;48.844;10.098;2023-05-15T10:25:02;4.88;;;4.40;;
48215;SDS011;34005;48.844;10.098;2023-05-15T10:27:36;4.65;;;4.25;;
48215;SDS011;34005;48.844;10.098;2023-05-15T10:30:06;4.45;;;3.97;;
48215;SDS011;34005;48.844;10.098;2023-05-15T10:32:36;4.43;;;4.03;;
48215;SDS011;34005;48.844;10.098;2023-05-15T10:35:08;5.40;;;4.57;;
48215;SDS011;34005;48.844;10.098;2023-05-15T10:37:37;5.43;;;4.10;;
48215;SDS011;34005;48.844;10.098;2023-05-15T10:40:06;3.67;;;3.38;;
48215;SDS011;34005;48.844;10.098;2023-05-15T10:42:37;5.25;;;4.10;;
48215;SDS011;34005;48.844;10.098;2023-05-15T10:45:08;3.90;;;3.50;;
48215;SDS011;34005;48.844;10.098;2023-05-15T10:47:37;5.15;;;3.58;;
48215;SDS011;34005;48.844;10.098;2023-05-15T10:50:06;3.72;;;3.30;;
48215;SDS011;34005;48.844;10.098;2023-05-15T10:52:35;3.50;;;3.17;;
48215;SDS011;34005;48.844;10.098;2023-05-15T10:55:05;4.88;;;3.72;;
48215;SDS011;34005;48.844;10.098;2023-05-15T10:57:34;4.40;;;4.00;;
48215;SDS011;34005;48.844;10.098;2023-05-15T11:00:03;4.10;;;3.80;;
48215;SDS011;34005;48.844;10.098;2023-05-15T11:02:51;5.88;;;5.38;;
48215;SDS011;34005;48.844;10.098;2023-05-15T11:05:22;7.35;;;5.18;;
48215;SDS011;34005;48.844;10.098;2023-05-15T11:10:51;4.60;;;4.20;;
48215;SDS011;34005;48.844;10.098;2023-05-15T11:13:18;4.90;;;4.47;;
48215;SDS011;34005;48.844;10.098;2023-05-15T11:15:48;5.72;;;4.28;;
48215;SDS011;34005;48.844;10.098;2023-05-15T11:18:15;4.53;;;4.22;;
48215;SDS011;34005;48.844;10.098;2023-05-15T11:23:36;5.43;;;4.55;;
48215;SDS011;34005;48.844;10.098;2023-05-15T11:26:05;5.88;;;4.30;;
48215;SDS011;34005;48.844;10.098;2023-05-15T11:28:39;4.40;;;4.05;;
48215;SDS011;34005;48.844;10.098;2023-05-15T11:31:09;4.57;;;4.18;;
48215;SDS011;34005;48.844;10.098;2023-05-15T11:33:37;4.25;;;3.92;;
48215;SDS011;34005;48.844;10.098;2023-05-15T11:36:06;5.38;;;4.70;;
48215;SDS011;34005;48.844;10.098;2023-05-15T11:38:37;4.47;;;4.00;;
48215;SDS011;34005;48.844;10.098;2023-05-15T11:41:15;4.63;;;4.18;;
48215;SDS011;34005;48.844;10.098;2023-05-15T11:43:44;4.68;;;3.95;;
48215;SDS011;34005;48.844;10.098;2023-05-15T11:46:13;4.70;;;4.30;;
48215;SDS011;34005;48.844;10.098;2023-05-15T11:48:41;4.43;;;4.03;;
48215;SDS011;34005;48.844;10.098;2023-05-15T11:51:14;4.15;;;3.83;;
48215;SDS011;34005;48.844;10.098;2023-05-15T11:53:42;3.15;;;2.70;;
48215;SDS011;34005;48.844;10.098;2023-05-15T11:56:16;4.78;;;2.35;;
48215;SDS011;34005;48.844;10.098;2023-05-15T11:58:46;5.90;;;2.80;;
48215;SDS011;34005;48.844;10.098;2023-05-15T12:01:16;6.93;;;3.13;;
48215;SDS011;34005;48.844;10.098;2023-05-15T12:03:45;6.78;;;3.33;;
48215;SDS011;34005;48.844;10.098;2023-05-15T12:06:14;5.10;;;2.58;;
48215;SDS011;34005;48.844;10.098;2023-05-15T12:08:42;6.78;;;2.80;;
48215;SDS011;34005;48.844;10.098;2023-05-15T12:11:10;8.23;;;3.75;;
48215;SDS011;34005;48.844;10.098;2023-05-15T12:13:38;14.18;;;5.20;;
48215;SDS011;34005;48.844;10.098;2023-05-15T12:16:06;10.73;;;5.03;;
48215;SDS011;34005;48.844;10.098;2023-05-15T12:18:35;5.30;;;3.55;;
48215;SDS011;34005;48.844;10.098;2023-05-15T12:21:03;4.43;;;3.00;;
48215;SDS011;34005;48.844;10.098;2023-05-15T12:23:31;5.32;;;2.85;;
48215;SDS011;34005;48.844;10.098;2023-05-15T12:25:59;3.50;;;2.90;;
48215;SDS011;34005;48.844;10.098;2023-05-15T12:28:31;5.32;;;3.05;;
48215;SDS011;34005;48.844;10.098;2023-05-15T12:30:59;6.93;;;4.25;;
48215;SDS011;34005;48.844;10.098;2023-05-15T12:33:27;6.00;;;3.97;;
48215;SDS011;34005;48.844;10.098;2023-05-15T12:35:57;8.45;;;4.18;;
48215;SDS011;34005;48.844;10.098;2023-05-15T12:40:54;4.75;;;3.42;;
48215;SDS011;34005;48.844;10.098;2023-05-15T12:43:23;5.65;;;3.90;;
48215;SDS011;34005;48.844;10.098;2023-05-15T12:45:51;5.93;;;3.72;;
48215;SDS011;34005;48.844;10.098;2023-05-15T12:48:19;5.18;;;3.55;;
48215;SDS011;34005;48.844;10.098;2023-05-15T12:50:47;4.50;;;3.97;;
48215;SDS011;34005;48.844;10.098;2023-05-15T12:53:21;5.57;;;4.15;;
48215;SDS011;34005;48.844;10.098;2023-05-15T12:55:48;4.13;;;3.72;;
48215;SDS011;34005;48.844;10.098;2023-05-15T12:58:17;6.28;;;4.18;;
48215;SDS011;34005;48.844;10.098;2023-05-15T13:00:45;6.63;;;5.00;;
48215;SDS011;34005;48.844;10.098;2023-05-15T13:03:13;7.28;;;4.85;;
48215;SDS011;34005;48.844;10.098;2023-05-15T13:05:42;5.25;;;4.75;;
48215;SDS011;34005;48.844;10.098;2023-05-15T13:08:13;7.53;;;5.03;;
48215;SDS011;34005;48.844;10.098;2023-05-15T13:10:44;4.72;;;4.28;;
48215;SDS011;34005;48.844;10.098;2023-05-15T13:13:13;6.10;;;4.25;;
48215;SDS011;34005;48.844;10.098;2023-05-15T13:15:43;6.00;;;3.60;;
48215;SDS011;34005;48.844;10.098;2023-05-15T13:18:11;4.05;;;3.58;;
48215;SDS011;34005;48.844;10.098;2023-05-15T13:20:40;3.55;;;3.17;;
48215;SDS011;34005;48.844;10.098;2023-05-15T13:23:10;3.10;;;2.55;;
48215;SDS011;34005;48.844;10.098;2023-05-15T13:25:40;2.72;;;2.28;;
48215;SDS011;34005;48.844;10.098;2023-05-15T13:28:09;3.47;;;2.25;;
48215;SDS011;34005;48.844;10.098;2023-05-15T13:30:38;4.03;;;2.42;;
48215;SDS011;34005;48.844;10.098;2023-05-15T13:33:07;2.10;;;1.90;;
48215;SDS011;34005;48.844;10.098;2023-05-15T13:35:35;4.03;;;2.60;;
48215;SDS011;34005;48.844;10.098;2023-05-15T13:38:03;2.20;;;2.05;;
48215;SDS011;34005;48.844;10.098;2023-05-15T13:40:33;4.03;;;2.60;;
48215;SDS011;34005;48.844;10.098;2023-05-15T13:43:02;3.60;;;2.28;;
48215;SDS011;34005;48.844;10.098;2023-05-15T13:45:33;2.75;;;2.50;;
48215;SDS011;34005;48.844;10.098;2023-05-15T13:48:00;3.15;;;2.65;;
48215;SDS011;34005;48.844;10.098;2023-05-15T13:50:29;3.47;;;2.40;;
48215;SDS011;34005;48.844;10.098;2023-05-15T13:52:56;3.70;;;3.40;;
48215;SDS011;34005;48.844;10.098;2023-05-15T13:55:24;2.95;;;2.47;;
48215;SDS011;34005;48.844;10.098;2023-05-15T13:57:52;2.63;;;2.42;;
48215;SDS011;34005;48.844;10.098;2023-05-15T14:00:20;4.18;;;2.78;;
48215;SDS011;34005;48.844;10.098;2023-05-15T14:02:49;3.35;;;3.05;;
48215;SDS011;34005;48.844;10.098;2023-05-15T14:05:16;3.00;;;2.80;;
48215;SDS011;34005;48.844;10.098;2023-05-15T14:07:44;3.55;;;3.25;;
48215;SDS011;34005;48.844;10.098;2023-05-15T14:10:11;5.07;;;3.22;;
48215;SDS011;34005;48.844;10.098;2023-05-15T14:12:39;3.78;;;3.05;;
48215;SDS011;34005;48.844;10.098;2023-05-15T14:15:08;6.97;;;3.40;;
48215;SDS011;34005;48.844;10.098;2023-05-15T14:17:38;3.83;;;2.83;;
48215;SDS011;34005;48.844;10.098;2023-05-15T14:20:08;3.22;;;2.92;;
48215;SDS011;34005;48.844;10.098;2023-05-15T14:22:36;4.43;;;3.00;;
48215;SDS011;34005;48.844;10.098;2023-05-15T14:25:05;3.78;;;3.05;;
48215;SDS011;34005;48.844;10.098;2023-05-15T14:27:33;3.38;;;2.92;;
48215;SDS011;34005;48.844;10.098;2023-05-15T14:30:01;3.38;;;3.08;;
48215;SDS011;34005;48.844;10.098;2023-05-15T14:32:29;3.10;;;2.75;;
48215;SDS011;34005;48.844;10.098;2023-05-15T14:34:57;3.40;;;3.13;;
48215;SDS011;34005;48.844;10.098;2023-05-15T14:37:26;4.85;;;2.47;;
48215;SDS011;34005;48.844;10.098;2023-05-15T14:39:54;2.70;;;2.50;;
48215;SDS011;34005;48.844;10.098;2023-05-15T14:42:21;3.15;;;2.80;;
48215;SDS011;34005;48.844;10.098;2023-05-15T14:44:49;3.28;;;3.03;;
48215;SDS011;34005;48.844;10.098;2023-05-15T14:47:17;4.60;;;2.92;;
48215;SDS011;34005;48.844;10.098;2023-05-15T14:49:44;6.55;;;3.40;;
48215;SDS011;34005;48.844;10.098;2023-05-15T14:52:12;3.13;;;2.92;;
48215;SDS011;34005;48.844;10.098;2023-05-15T14:54:41;3.35;;;3.05;;
48215;SDS011;34005;48.844;10.098;2023-05-15T14:57:12;6.20;;;3.15;;
48215;SDS011;34005;48.844;10.098;2023-05-15T14:59:45;3.45;;;2.75;;
48215;SDS011;34005;48.844;10.098;2023-05-15T15:02:12;3.28;;;2.88;;
48215;SDS011;34005;48.844;10.098;2023-05-15T15:04:40;4.10;;;2.92;;
48215;SDS011;34005;48.844;10.098;2023-05-15T15:07:09;3.72;;;2.72;;